Terminal Aerodrome Forecast
Issued by NWS

Home | Current Version | Previous Version | Graphics & Text | Print | Product List | Glossary Off
Versions: 1 2 3 4 5 6 7 8 9 10 11 12 13 14 15 16 17 18 19 20 21 22 23 24 25 26 27 28 29 30 31 32 33 34 35 36 37

000
FTUS43 KDDC 191725
TAFHYS
TAF
KHYS 191725Z 1918/2018 36014KT P6SM OVC016
     FM192100 07011KT P6SM BKN025
     FM200800 03013KT P6SM BKN006 WS020/21050KT
     FM201300 35014G22KT P6SM BKN045
     FM201700 35014KT P6SM SCT200=

USA.gov is the U.S. government's official web portal to all federal, state and local government web resources and services.